createdAt,value
2023-04-02T00:00:20.440Z,83.88
2023-04-02T00:03:03.864Z,83.77
2023-04-02T00:05:51.878Z,84.01
2023-04-02T00:08:41.091Z,83.89
2023-04-02T00:11:10.701Z,84.08
2023-04-02T00:13:46.687Z,84.01
2023-04-02T00:16:24.370Z,83.92
2023-04-02T00:18:59.242Z,83.88
2023-04-02T00:21:33.411Z,83.84
2023-04-02T00:24:08.192Z,83.74
2023-04-02T00:26:44.161Z,83.85
2023-04-02T00:29:15.738Z,83.74
2023-04-02T00:31:49.070Z,83.83
2023-04-02T00:34:23.556Z,83.72
2023-04-02T00:36:55.027Z,83.79
2023-04-02T00:39:27.294Z,83.81
2023-04-02T00:42:05.253Z,83.85
2023-04-02T00:44:38.709Z,83.52
2023-04-02T00:47:20.276Z,83.48
2023-04-02T00:49:55.460Z,83.45
2023-04-02T00:52:30.644Z,83.68
2023-04-02T00:55:07.834Z,83.58
2023-04-02T00:57:37.349Z,83.57
2023-04-02T01:00:23.006Z,83.52
2023-04-02T01:03:30.082Z,83.26
2023-04-02T01:06:03.270Z,83.16
2023-04-02T01:08:53.401Z,83.03
2023-04-02T01:11:43.640Z,83.19
2023-04-02T01:14:26.244Z,83.51
2023-04-02T01:17:06.110Z,83.42
2023-04-02T01:20:13.842Z,83.57
2023-04-02T01:22:52.942Z,83.77
2023-04-02T01:25:31.481Z,83.88
2023-04-02T01:28:11.255Z,84.05
2023-04-02T01:30:42.511Z,84.37
2023-04-02T01:33:13.218Z,84.42
2023-04-02T01:35:51.425Z,84.42
2023-04-02T01:38:27.422Z,84.49
2023-04-02T01:41:03.519Z,84.41
2023-04-02T01:43:44.149Z,84.67
2023-04-02T01:46:30.331Z,84.76
2023-04-02T01:49:05.059Z,84.66
2023-04-02T01:51:36.299Z,84.83
2023-04-02T01:54:08.864Z,84.90
2023-04-02T01:56:38.368Z,85.02
2023-04-02T01:59:11.341Z,85.20
2023-04-02T02:01:49.517Z,85.15
2023-04-02T02:04:19.795Z,85.01
2023-04-02T02:06:49.249Z,84.95
2023-04-02T02:09:26.642Z,85.10
2023-04-02T02:11:55.481Z,85.15
2023-04-02T02:14:27.617Z,85.02
2023-04-02T02:17:24.221Z,85.33
2023-04-02T02:19:57.126Z,85.44
2023-04-02T02:22:32.049Z,85.75
2023-04-02T02:25:05.502Z,85.68
2023-04-02T02:27:56.890Z,85.76
2023-04-02T02:30:31.552Z,85.91
2023-04-02T02:33:10.131Z,85.72
2023-04-02T02:35:48.280Z,85.89
2023-04-02T02:38:54.211Z,85.90
2023-04-02T02:41:44.279Z,86.02
2023-04-02T02:44:20.817Z,86.06
2023-04-02T02:46:55.729Z,85.96
2023-04-02T02:49:29.904Z,85.95
2023-04-02T02:52:05.440Z,85.93
2023-04-02T02:54:49.194Z,86.02
2023-04-02T02:57:26.277Z,85.99
2023-04-02T02:59:59.215Z,85.97
2023-04-02T03:02:30.510Z,86.21
2023-04-02T03:05:02.936Z,86.20
2023-04-02T03:07:33.580Z,86.15
2023-04-02T03:10:14.496Z,86.05
2023-04-02T03:12:51.424Z,86.22
2023-04-02T03:15:29.815Z,86.20
2023-04-02T03:18:04.768Z,86.23
2023-04-02T03:20:46.791Z,86.15
2023-04-02T03:23:25.131Z,86.19
2023-04-02T03:26:03.141Z,86.25
2023-04-02T03:28:38.465Z,86.13
2023-04-02T03:31:11.411Z,86.28
2023-04-02T03:33:45.682Z,86.35
2023-04-02T03:36:24.465Z,86.35
2023-04-02T03:39:02.413Z,86.32
2023-04-02T03:41:40.504Z,86.31
2023-04-02T03:44:22.848Z,86.10
2023-04-02T03:46:58.902Z,86.19
2023-04-02T03:49:38.875Z,86.40
2023-04-02T03:52:14.619Z,86.23
2023-04-02T03:54:53.901Z,86.14
2023-04-02T03:57:32.394Z,86.00
2023-04-02T04:00:09.353Z,85.95
2023-04-02T04:02:48.880Z,86.00
2023-04-02T04:05:29.882Z,85.82
2023-04-02T04:08:07.840Z,85.61
2023-04-02T04:10:37.305Z,85.50
2023-04-02T04:13:14.563Z,85.55
2023-04-02T04:15:52.539Z,85.38
2023-04-02T04:18:34.938Z,85.21
2023-04-02T04:21:22.888Z,85.17
2023-04-02T04:23:53.511Z,84.88
2023-04-02T04:26:34.981Z,84.67
2023-04-02T04:29:19.652Z,84.53
2023-04-02T04:31:55.839Z,84.42
2023-04-02T04:34:42.355Z,84.19
2023-04-02T04:37:25.277Z,84.09
2023-04-02T04:40:05.381Z,83.76
2023-04-02T04:42:38.871Z,83.60
2023-04-02T04:45:31.605Z,83.82
2023-04-02T04:48:06.521Z,83.85
2023-04-02T04:50:42.357Z,83.65
2023-04-02T04:53:21.088Z,83.35
2023-04-02T04:55:59.699Z,83.14
2023-04-02T04:58:48.966Z,82.78
2023-04-02T05:01:25.588Z,82.92
2023-04-02T05:04:04.954Z,82.75
2023-04-02T05:06:43.932Z,82.95
2023-04-02T05:09:23.956Z,82.47
2023-04-02T05:12:07.198Z,82.24
2023-04-02T05:14:43.636Z,82.32
2023-04-02T05:17:20.842Z,82.52
2023-04-02T05:19:58.014Z,82.19
2023-04-02T05:22:35.913Z,82.05
2023-04-02T05:25:21.163Z,82.06
2023-04-02T05:28:00.102Z,82.10
2023-04-02T05:30:49.516Z,81.99
2023-04-02T05:33:28.277Z,81.64
2023-04-02T05:36:04.598Z,81.53
2023-04-02T05:38:41.643Z,81.23
2023-04-02T05:41:26.967Z,80.99
2023-04-02T05:44:08.487Z,80.85
2023-04-02T05:46:46.915Z,80.82
2023-04-02T05:49:25.042Z,80.43
2023-04-02T05:52:01.668Z,80.55
2023-04-02T05:54:39.398Z,80.67
2023-04-02T05:57:14.988Z,80.33
2023-04-02T05:59:52.842Z,80.18
2023-04-02T06:02:30.948Z,79.67
2023-04-02T06:05:04.324Z,79.94
2023-04-02T06:07:47.690Z,79.49
2023-04-02T06:10:24.966Z,79.32
2023-04-02T06:13:03.454Z,78.81
2023-04-02T06:15:39.181Z,78.97
2023-04-02T06:18:20.431Z,78.98
2023-04-02T06:20:51.115Z,78.93
2023-04-02T06:23:31.052Z,78.56
2023-04-02T06:26:09.070Z,78.99
2023-04-02T06:28:47.837Z,79.77
2023-04-02T06:31:33.926Z,79.23
2023-04-02T06:34:08.091Z,79.43
2023-04-02T06:36:36.969Z,78.29
2023-04-02T06:39:18.362Z,78.52
2023-04-02T06:41:47.874Z,79.17
2023-04-02T06:44:43.006Z,78.64
2023-04-02T06:47:48.110Z,78.11
2023-04-02T06:50:32.432Z,78.70
2023-04-02T06:53:12.069Z,78.31
2023-04-02T06:55:48.031Z,78.89
2023-04-02T06:58:21.553Z,78.50
2023-04-02T07:00:53.106Z,78.54
2023-04-02T07:03:35.640Z,78.26
2023-04-02T07:06:21.736Z,77.45
2023-04-02T07:08:52.719Z,77.89
2023-04-02T07:11:24.259Z,77.80
2023-04-02T07:13:55.852Z,77.61
2023-04-02T07:16:28.077Z,78.44
2023-04-02T07:18:59.996Z,78.06
2023-04-02T07:21:33.045Z,76.41
2023-04-02T07:24:03.713Z,76.28
2023-04-02T07:26:33.454Z,76.36
2023-04-02T07:29:02.619Z,76.52
2023-04-02T07:31:32.167Z,74.99
2023-04-02T07:34:03.118Z,74.44
2023-04-02T07:36:35.530Z,75.10
2023-04-02T07:39:06.139Z,74.06
2023-04-02T07:41:35.358Z,75.01
2023-04-02T07:44:06.504Z,74.41
2023-04-02T07:46:37.787Z,74.15
2023-04-02T07:49:09.149Z,73.80
2023-04-02T07:51:38.331Z,73.92
2023-04-02T07:54:10.113Z,73.38
2023-04-02T07:56:44.595Z,72.87
2023-04-02T07:59:24.011Z,73.10
2023-04-02T08:01:59.295Z,72.93
2023-04-02T08:04:30.507Z,73.07
2023-04-02T08:06:59.712Z,71.99
2023-04-02T08:09:29.301Z,72.20
2023-04-02T08:11:58.251Z,70.05
2023-04-02T08:14:27.003Z,69.73
2023-04-02T08:16:57.566Z,69.72
2023-04-02T08:19:30.114Z,69.52
2023-04-02T08:22:00.233Z,70.48
2023-04-02T08:24:30.800Z,69.74
2023-04-02T08:27:02.490Z,69.55
2023-04-02T08:29:32.469Z,69.28
2023-04-02T08:32:01.537Z,70.58
2023-04-02T08:34:30.496Z,70.37
2023-04-02T08:37:00.936Z,69.51
2023-04-02T08:39:33.131Z,69.36
2023-04-02T08:42:15.868Z,68.64
2023-04-02T08:44:56.362Z,68.93
2023-04-02T08:47:29.943Z,68.93
2023-04-02T08:50:06.564Z,69.38
2023-04-02T08:52:40.208Z,69.43
2023-04-02T08:55:27.053Z,69.75
2023-04-02T08:58:04.468Z,70.46
2023-04-02T09:00:40.176Z,69.44
2023-04-02T09:03:18.958Z,69.63
2023-04-02T09:05:50.960Z,69.67
2023-04-02T09:08:24.663Z,69.72
2023-04-02T09:11:01.684Z,68.96
2023-04-02T09:13:34.291Z,68.92
2023-04-02T09:16:13.031Z,68.96
2023-04-02T09:18:42.581Z,69.19
2023-04-02T09:21:36.019Z,68.49
2023-04-02T09:24:06.573Z,68.64
2023-04-02T09:26:36.990Z,68.91
2023-04-02T09:29:41.120Z,70.32
2023-04-02T09:32:29.655Z,69.77
2023-04-02T09:35:22.984Z,68.64
2023-04-02T09:38:29.133Z,68.55
2023-04-02T09:41:03.781Z,67.29
2023-04-02T09:43:35.499Z,67.77
2023-04-02T09:46:18.422Z,67.88
2023-04-02T09:48:55.397Z,68.11
2023-04-02T09:51:27.933Z,69.17
2023-04-02T09:54:14.144Z,69.72
2023-04-02T09:57:02.250Z,68.53
2023-04-02T09:59:31.127Z,68.52
2023-04-02T10:02:04.606Z,69.72
2023-04-02T10:04:38.908Z,68.21
2023-04-02T10:07:08.353Z,68.56
2023-04-02T10:09:39.711Z,67.59
2023-04-02T10:12:16.403Z,67.79
2023-04-02T10:14:49.730Z,66.20
2023-04-02T10:17:24.451Z,66.22
2023-04-02T10:20:00.055Z,66.41
2023-04-02T10:22:30.064Z,66.06
2023-04-02T10:25:00.739Z,66.54
2023-04-02T10:27:42.674Z,65.74
2023-04-02T10:30:23.205Z,66.34
2023-04-02T10:32:58.759Z,67.59
2023-04-02T10:35:43.635Z,67.63
2023-04-02T10:38:43.064Z,66.95
2023-04-02T10:41:28.146Z,68.12
2023-04-02T10:44:22.442Z,67.65
2023-04-02T10:47:16.768Z,66.17
2023-04-02T10:49:55.762Z,65.66
2023-04-02T10:52:31.923Z,65.24
2023-04-02T10:55:07.415Z,65.96
2023-04-02T10:57:40.755Z,66.80
2023-04-02T11:00:24.098Z,67.43
2023-04-02T11:03:00.230Z,66.63
2023-04-02T11:05:40.326Z,66.38
2023-04-02T11:08:20.121Z,66.74
2023-04-02T11:10:56.906Z,67.05
2023-04-02T11:13:34.935Z,65.72
2023-04-02T11:16:08.456Z,66.48
2023-04-02T11:18:37.574Z,66.45
2023-04-02T11:21:08.985Z,65.21
2023-04-02T11:23:59.655Z,66.15
2023-04-02T11:26:39.402Z,66.29
2023-04-02T11:29:20.216Z,66.46
2023-04-02T11:32:12.417Z,66.02
2023-04-02T11:35:27.444Z,66.67
2023-04-02T11:37:58.344Z,66.45
2023-04-02T11:40:51.497Z,67.12
2023-04-02T11:43:53.245Z,67.52
2023-04-02T11:46:46.536Z,67.77
2023-04-02T11:50:14.070Z,67.45
2023-04-02T11:52:59.802Z,66.44
2023-04-02T11:55:33.475Z,66.21
2023-04-02T11:58:45.027Z,66.60
2023-04-02T12:02:18.774Z,67.49
2023-04-02T12:05:25.327Z,67.27
2023-04-02T12:08:23.409Z,67.01
2023-04-02T12:10:59.828Z,67.00
2023-04-02T12:14:10.516Z,67.06
2023-04-02T12:16:40.239Z,67.21
2023-04-02T12:19:10.964Z,67.65
2023-04-02T12:21:40.058Z,66.04
2023-04-02T12:24:23.206Z,66.44
2023-04-02T12:27:15.671Z,67.21
2023-04-02T12:29:45.051Z,66.67
2023-04-02T12:32:26.632Z,67.81
2023-04-02T12:34:58.971Z,67.37
2023-04-02T12:37:30.819Z,67.16
2023-04-02T12:40:07.278Z,67.33
2023-04-02T12:42:39.045Z,67.22
2023-04-02T12:45:08.965Z,66.37
2023-04-02T12:47:37.770Z,66.66
2023-04-02T12:50:15.046Z,67.05
2023-04-02T12:52:48.142Z,67.11
2023-04-02T12:55:22.068Z,67.01
2023-04-02T12:57:55.867Z,67.27
2023-04-02T13:00:36.754Z,66.63
2023-04-02T13:03:26.609Z,65.95
2023-04-02T13:05:58.720Z,67.75
2023-04-02T13:08:33.210Z,65.87
2023-04-02T13:11:06.488Z,65.59
2023-04-02T13:13:38.346Z,65.35
2023-04-02T13:16:26.238Z,64.62
2023-04-02T13:19:13.813Z,64.78
2023-04-02T13:21:42.861Z,64.55
2023-04-02T13:24:19.269Z,64.24
2023-04-02T13:26:50.516Z,65.41
2023-04-02T13:29:27.603Z,65.51
2023-04-02T13:32:01.303Z,64.62
2023-04-02T13:34:34.058Z,64.14
2023-04-02T13:37:02.749Z,64.28
2023-04-02T13:39:31.613Z,64.96
2023-04-02T13:42:06.592Z,65.32
2023-04-02T13:44:37.614Z,65.33
2023-04-02T13:47:06.455Z,64.37
2023-04-02T13:49:35.324Z,65.47
2023-04-02T13:52:05.417Z,65.46
2023-04-02T13:54:44.652Z,65.67
2023-04-02T13:57:15.794Z,64.34
2023-04-02T13:59:44.545Z,63.70
2023-04-02T14:02:18.969Z,63.29
2023-04-02T14:04:54.726Z,63.34
2023-04-02T14:07:45.275Z,64.25
2023-04-02T14:10:27.849Z,65.17
2023-04-02T14:13:19.839Z,64.80
2023-04-02T14:16:13.567Z,65.05
2023-04-02T14:19:04.379Z,64.42
2023-04-02T14:21:48.329Z,64.25
2023-04-02T14:24:23.630Z,64.51
2023-04-02T14:27:08.301Z,64.61
2023-04-02T14:29:49.714Z,64.79
2023-04-02T14:32:27.219Z,65.03
2023-04-02T14:35:08.659Z,64.27
2023-04-02T14:37:47.410Z,64.18
2023-04-02T14:40:25.839Z,64.46
2023-04-02T14:43:01.948Z,64.33
2023-04-02T14:45:49.488Z,64.24
2023-04-02T14:48:36.637Z,64.88
2023-04-02T14:51:15.302Z,65.02
2023-04-02T14:54:00.432Z,64.26
2023-04-02T14:56:32.441Z,63.67
2023-04-02T14:59:20.976Z,63.24
2023-04-02T15:01:56.597Z,64.07
2023-04-02T15:04:35.034Z,63.96
2023-04-02T15:07:14.854Z,64.61
2023-04-02T15:09:48.755Z,64.21
2023-04-02T15:12:25.095Z,64.41
2023-04-02T15:15:03.570Z,64.16
2023-04-02T15:17:34.282Z,64.25
2023-04-02T15:20:16.091Z,64.56
2023-04-02T15:23:02.005Z,64.67
2023-04-02T15:25:43.844Z,65.28
2023-04-02T15:28:28.003Z,65.42
2023-04-02T15:31:01.225Z,65.94
2023-04-02T15:33:46.146Z,66.29
2023-04-02T15:37:14.348Z,64.47
2023-04-02T15:39:54.809Z,63.33
2023-04-02T15:42:29.076Z,62.91
2023-04-02T15:45:22.312Z,63.09
2023-04-02T15:48:27.646Z,63.72
2023-04-02T15:51:06.378Z,63.99
2023-04-02T15:53:51.961Z,64.51
2023-04-02T15:56:46.571Z,65.19
2023-04-02T15:59:47.536Z,65.63
2023-04-02T16:02:40.727Z,65.96
2023-04-02T16:05:23.122Z,66.58
2023-04-02T16:08:19.166Z,66.25
2023-04-02T16:10:48.053Z,66.21
2023-04-02T16:13:32.667Z,66.67
2023-04-02T16:16:08.486Z,66.84
2023-04-02T16:18:51.870Z,66.30
2023-04-02T16:21:24.778Z,66.19
2023-04-02T16:23:55.225Z,65.93
2023-04-02T16:26:37.967Z,65.84
2023-04-02T16:29:32.009Z,65.53
2023-04-02T16:32:21.231Z,65.63
2023-04-02T16:35:22.208Z,65.59
2023-04-02T16:38:04.402Z,66.09
2023-04-02T16:40:57.115Z,66.21
2023-04-02T16:43:38.656Z,65.84
2023-04-02T16:46:22.554Z,65.49
2023-04-02T16:49:04.293Z,66.10
2023-04-02T16:51:46.578Z,66.03
2023-04-02T16:54:23.810Z,65.97
2023-04-02T16:57:31.584Z,66.35
2023-04-02T17:00:19.069Z,66.10
2023-04-02T17:03:05.182Z,65.91
2023-04-02T17:05:51.822Z,66.10
2023-04-02T17:08:26.116Z,66.19
2023-04-02T17:11:02.629Z,66.35
2023-04-02T17:13:41.661Z,66.89
2023-04-02T17:16:21.879Z,67.20
2023-04-02T17:18:54.369Z,67.81
2023-04-02T17:21:28.035Z,68.27
2023-04-02T17:24:05.655Z,68.88
2023-04-02T17:26:39.082Z,69.67
2023-04-02T17:29:27.976Z,70.68
2023-04-02T17:32:13.395Z,70.82
2023-04-02T17:34:44.024Z,71.16
2023-04-02T17:37:31.005Z,71.54
2023-04-02T17:40:20.048Z,71.52
2023-04-02T17:43:03.356Z,71.76
2023-04-02T17:45:42.997Z,71.84
2023-04-02T17:48:22.076Z,72.32
2023-04-02T17:51:05.560Z,72.98
2023-04-02T17:53:47.184Z,73.44
2023-04-02T17:56:32.594Z,74.15
2023-04-02T17:59:32.167Z,76.05
2023-04-02T18:02:24.442Z,78.17
2023-04-02T18:05:07.784Z,79.46
2023-04-02T18:07:48.745Z,80.34
2023-04-02T18:10:28.317Z,80.96
2023-04-02T18:13:03.217Z,80.90
2023-04-02T18:15:55.666Z,81.25
2023-04-02T18:18:55.103Z,81.28
2023-04-02T18:21:32.928Z,81.35
2023-04-02T18:24:28.692Z,81.29
2023-04-02T18:27:21.561Z,81.34
2023-04-02T18:30:11.997Z,81.32
2023-04-02T18:33:32.250Z,81.01
2023-04-02T18:36:11.671Z,81.21
2023-04-02T18:38:49.025Z,81.27
2023-04-02T18:41:44.042Z,81.56
2023-04-02T18:44:38.751Z,82.09
2023-04-02T18:47:20.613Z,81.84
2023-04-02T18:49:57.876Z,82.02
2023-04-02T18:52:26.683Z,82.32
2023-04-02T18:55:05.585Z,82.08
2023-04-02T18:57:39.204Z,82.44
2023-04-02T19:00:26.693Z,82.45
2023-04-02T19:03:01.430Z,82.58
2023-04-02T19:05:40.787Z,82.72
2023-04-02T19:08:18.474Z,83.16
2023-04-02T19:10:52.210Z,83.44
2023-04-02T19:13:22.077Z,83.64
2023-04-02T19:16:37.397Z,84.01
2023-04-02T19:19:18.695Z,84.25
2023-04-02T19:22:09.077Z,84.39
2023-04-02T19:25:04.050Z,84.59
2023-04-02T19:27:53.282Z,84.78
2023-04-02T19:30:53.928Z,84.60
2023-04-02T19:33:38.618Z,85.05
2023-04-02T19:36:35.977Z,84.91
2023-04-02T19:39:33.107Z,84.88
2023-04-02T19:42:13.190Z,84.47
2023-04-02T19:44:49.604Z,84.30
2023-04-02T19:47:19.747Z,84.29
2023-04-02T19:49:49.678Z,84.41
2023-04-02T19:52:19.493Z,84.33
2023-04-02T19:54:49.464Z,84.30
2023-04-02T19:57:18.560Z,84.33
2023-04-02T19:59:47.572Z,84.31
2023-04-02T20:02:16.362Z,84.18
2023-04-02T20:04:45.032Z,83.99
2023-04-02T20:07:13.741Z,83.71
2023-04-02T20:09:42.636Z,83.08
2023-04-02T20:12:14.277Z,82.83
2023-04-02T20:14:42.903Z,81.79
2023-04-02T20:17:11.737Z,80.94
2023-04-02T20:19:40.853Z,80.87
2023-04-02T20:22:09.632Z,80.50
2023-04-02T20:24:38.301Z,79.61
2023-04-02T20:27:06.963Z,79.86
2023-04-02T20:29:37.043Z,79.65
2023-04-02T20:32:05.847Z,78.91
2023-04-02T20:34:34.615Z,79.13
2023-04-02T20:37:03.488Z,78.70
2023-04-02T20:39:32.113Z,78.27
2023-04-02T20:42:02.969Z,77.93
2023-04-02T20:44:31.973Z,77.26
2023-04-02T20:47:04.475Z,77.74
2023-04-02T20:49:33.230Z,77.97
2023-04-02T20:52:02.036Z,78.54
2023-04-02T20:54:30.652Z,79.28
2023-04-02T20:56:59.369Z,79.55
2023-04-02T20:59:27.949Z,79.73
2023-04-02T21:01:56.746Z,79.59
2023-04-02T21:04:28.386Z,79.33
2023-04-02T21:06:57.618Z,79.22
2023-04-02T21:09:26.283Z,78.93
2023-04-02T21:11:55.064Z,79.15
2023-04-02T21:14:24.059Z,79.23
2023-04-02T21:16:52.682Z,79.37
2023-04-02T21:19:21.252Z,79.27
2023-04-02T21:21:51.198Z,78.83
2023-04-02T21:24:19.793Z,78.05
2023-04-02T21:26:48.827Z,77.96
2023-04-02T21:29:17.643Z,77.66
2023-04-02T21:31:46.393Z,77.93
2023-04-02T21:34:17.441Z,76.86
2023-04-02T21:36:48.115Z,76.72
2023-04-02T21:39:21.249Z,77.03
2023-04-02T21:41:53.106Z,76.69
2023-04-02T21:44:24.291Z,77.34
2023-04-02T21:46:54.208Z,76.96
2023-04-02T21:49:26.163Z,76.86
2023-04-02T21:51:55.005Z,76.26
2023-04-02T21:54:25.093Z,75.69
2023-04-02T21:56:53.788Z,75.68
2023-04-02T21:59:22.537Z,75.81
2023-04-02T22:01:53.447Z,75.32
2023-04-02T22:04:24.168Z,75.41
2023-04-02T22:06:54.422Z,74.99
2023-04-02T22:09:27.646Z,75.34
2023-04-02T22:11:59.874Z,74.88
2023-04-02T22:14:29.446Z,74.98
2023-04-02T22:16:58.791Z,74.35
2023-04-02T22:19:28.394Z,74.33
2023-04-02T22:21:57.544Z,74.57
2023-04-02T22:24:27.561Z,73.72
2023-04-02T22:26:56.671Z,73.09
2023-04-02T22:29:25.459Z,73.36
2023-04-02T22:31:54.081Z,73.01
2023-04-02T22:34:22.763Z,72.59
2023-04-02T22:36:53.118Z,72.49
2023-04-02T22:39:21.806Z,72.29
2023-04-02T22:41:51.745Z,72.03
2023-04-02T22:44:20.375Z,71.17
2023-04-02T22:46:49.035Z,71.50
2023-04-02T22:49:19.335Z,71.98
2023-04-02T22:51:48.381Z,72.09
2023-04-02T22:54:17.238Z,71.86
2023-04-02T22:56:45.919Z,72.09
2023-04-02T22:59:16.245Z,72.23
2023-04-02T23:01:45.067Z,72.36
2023-04-02T23:04:13.786Z,72.71
2023-04-02T23:06:42.505Z,72.78
2023-04-02T23:09:11.490Z,72.98
2023-04-02T23:11:40.052Z,73.08
2023-04-02T23:14:08.687Z,72.94
2023-04-02T23:16:38.814Z,73.23
2023-04-02T23:19:07.446Z,73.72
2023-04-02T23:21:36.257Z,74.50
2023-04-02T23:24:05.137Z,75.26
2023-04-02T23:26:34.143Z,76.32
2023-04-02T23:29:03.095Z,76.81
2023-04-02T23:31:33.724Z,77.20
2023-04-02T23:34:04.399Z,77.57
2023-04-02T23:36:35.943Z,78.55
2023-04-02T23:39:09.450Z,78.81
2023-04-02T23:41:39.919Z,79.09
2023-04-02T23:44:09.564Z,79.42
2023-04-02T23:46:38.732Z,79.89
2023-04-02T23:49:11.443Z,80.20
2023-04-02T23:51:40.805Z,80.15
2023-04-02T23:54:09.491Z,80.53
2023-04-02T23:56:38.145Z,80.51
2023-04-02T23:59:06.977Z,80.75
